sensor_id;sensor_type;location;lat;lon;timestamp;temperature;humidity
71142;DHT22;58808;59.366;17.970;2023-11-19T00:00:36;-3.30;99.90
71142;DHT22;58808;59.366;17.970;2023-11-19T00:03:01;-3.20;99.90
71142;DHT22;58808;59.366;17.970;2023-11-19T00:05:27;-3.20;99.90
71142;DHT22;58808;59.366;17.970;2023-11-19T00:07:53;-3.20;99.90
71142;DHT22;58808;59.366;17.970;2023-11-19T00:10:19;-3.20;99.90
71142;DHT22;58808;59.366;17.970;2023-11-19T00:12:47;-3.10;99.90
71142;DHT22;58808;59.366;17.970;2023-11-19T00:15:14;-3.10;99.90
71142;DHT22;58808;59.366;17.970;2023-11-19T00:17:41;-3.20;99.90
71142;DHT22;58808;59.366;17.970;2023-11-19T00:20:10;-3.20;99.90
71142;DHT22;58808;59.366;17.970;2023-11-19T00:22:36;-3.30;99.90
71142;DHT22;58808;59.366;17.970;2023-11-19T00:25:02;-3.30;99.90
71142;DHT22;58808;59.366;17.970;2023-11-19T00:27:29;-3.30;99.90
71142;DHT22;58808;59.366;17.970;2023-11-19T00:29:54;-3.40;99.90
71142;DHT22;58808;59.366;17.970;2023-11-19T00:32:20;-3.40;99.90
71142;DHT22;58808;59.366;17.970;2023-11-19T00:34:46;-3.30;99.90
71142;DHT22;58808;59.366;17.970;2023-11-19T00:37:13;-3.30;99.90
71142;DHT22;58808;59.366;17.970;2023-11-19T00:39:39;-3.30;99.90
71142;DHT22;58808;59.366;17.970;2023-11-19T00:42:05;-3.30;99.90
71142;DHT22;58808;59.366;17.970;2023-11-19T00:44:31;-3.30;99.90
71142;DHT22;58808;59.366;17.970;2023-11-19T00:46:56;-3.30;99.90
71142;DHT22;58808;59.366;17.970;2023-11-19T00:49:22;-3.40;99.90
71142;DHT22;58808;59.366;17.970;2023-11-19T00:51:48;-3.40;99.90
71142;DHT22;58808;59.366;17.970;2023-11-19T00:54:14;-3.40;99.90
71142;DHT22;58808;59.366;17.970;2023-11-19T00:56:40;-3.40;99.90
71142;DHT22;58808;59.366;17.970;2023-11-19T00:59:06;-3.50;99.90
71142;DHT22;58808;59.366;17.970;2023-11-19T01:01:31;-3.50;99.90
71142;DHT22;58808;59.366;17.970;2023-11-19T01:03:57;-3.50;99.90
71142;DHT22;58808;59.366;17.970;2023-11-19T01:06:30;-3.50;99.90
71142;DHT22;58808;59.366;17.970;2023-11-19T01:08:56;-3.50;99.90
71142;DHT22;58808;59.366;17.970;2023-11-19T01:11:26;-3.50;99.90
71142;DHT22;58808;59.366;17.970;2023-11-19T01:13:52;-3.40;99.90
71142;DHT22;58808;59.366;17.970;2023-11-19T01:16:18;-3.30;99.90
71142;DHT22;58808;59.366;17.970;2023-11-19T01:18:46;-3.30;99.90
71142;DHT22;58808;59.366;17.970;2023-11-19T01:21:12;-3.30;99.90
71142;DHT22;58808;59.366;17.970;2023-11-19T01:23:40;-3.40;99.90
71142;DHT22;58808;59.366;17.970;2023-11-19T01:26:08;-3.50;99.90
71142;DHT22;58808;59.366;17.970;2023-11-19T01:28:36;-3.60;99.90
71142;DHT22;58808;59.366;17.970;2023-11-19T01:31:01;-3.60;99.90
71142;DHT22;58808;59.366;17.970;2023-11-19T01:33:27;-3.60;99.90
71142;DHT22;58808;59.366;17.970;2023-11-19T01:35:53;-3.60;99.90
71142;DHT22;58808;59.366;17.970;2023-11-19T01:38:19;-3.60;99.90
71142;DHT22;58808;59.366;17.970;2023-11-19T01:40:44;-3.70;99.90
71142;DHT22;58808;59.366;17.970;2023-11-19T01:43:10;-3.80;99.90
71142;DHT22;58808;59.366;17.970;2023-11-19T01:45:40;-3.90;99.90
71142;DHT22;58808;59.366;17.970;2023-11-19T01:48:06;-3.80;99.90
71142;DHT22;58808;59.366;17.970;2023-11-19T01:50:33;-3.90;99.90
71142;DHT22;58808;59.366;17.970;2023-11-19T01:52:58;-4.00;99.90
71142;DHT22;58808;59.366;17.970;2023-11-19T01:55:26;-4.10;99.90
71142;DHT22;58808;59.366;17.970;2023-11-19T01:57:55;-4.10;99.90
71142;DHT22;58808;59.366;17.970;2023-11-19T02:00:24;-4.00;99.90
71142;DHT22;58808;59.366;17.970;2023-11-19T02:02:50;-4.00;99.90
71142;DHT22;58808;59.366;17.970;2023-11-19T02:05:17;-4.10;99.90
71142;DHT22;58808;59.366;17.970;2023-11-19T02:07:43;-4.10;99.90
71142;DHT22;58808;59.366;17.970;2023-11-19T02:10:10;-4.00;99.90
71142;DHT22;58808;59.366;17.970;2023-11-19T02:12:42;-4.00;99.90
71142;DHT22;58808;59.366;17.970;2023-11-19T02:15:09;-3.90;99.90
71142;DHT22;58808;59.366;17.970;2023-11-19T02:17:35;-4.00;99.90
71142;DHT22;58808;59.366;17.970;2023-11-19T02:20:03;-4.00;99.90
71142;DHT22;58808;59.366;17.970;2023-11-19T02:22:34;-4.00;99.90
71142;DHT22;58808;59.366;17.970;2023-11-19T02:25:03;-3.90;99.90
71142;DHT22;58808;59.366;17.970;2023-11-19T02:27:46;-3.90;99.90
71142;DHT22;58808;59.366;17.970;2023-11-19T02:30:14;-3.90;99.90
71142;DHT22;58808;59.366;17.970;2023-11-19T02:32:41;-3.80;99.90
71142;DHT22;58808;59.366;17.970;2023-11-19T02:35:07;-3.80;99.90
71142;DHT22;58808;59.366;17.970;2023-11-19T02:37:38;-3.80;99.90
71142;DHT22;58808;59.366;17.970;2023-11-19T02:40:04;-3.70;99.90
71142;DHT22;58808;59.366;17.970;2023-11-19T02:42:31;-3.70;99.90
71142;DHT22;58808;59.366;17.970;2023-11-19T02:44:57;-3.80;99.90
71142;DHT22;58808;59.366;17.970;2023-11-19T02:47:22;-3.70;99.90
71142;DHT22;58808;59.366;17.970;2023-11-19T02:49:49;-3.70;99.90
71142;DHT22;58808;59.366;17.970;2023-11-19T02:52:15;-3.80;99.90
71142;DHT22;58808;59.366;17.970;2023-11-19T02:54:42;-3.80;99.90
71142;DHT22;58808;59.366;17.970;2023-11-19T02:57:08;-3.80;99.90
71142;DHT22;58808;59.366;17.970;2023-11-19T02:59:39;-3.80;99.90
71142;DHT22;58808;59.366;17.970;2023-11-19T03:02:07;-3.70;99.90
71142;DHT22;58808;59.366;17.970;2023-11-19T03:04:33;-3.70;99.90
71142;DHT22;58808;59.366;17.970;2023-11-19T03:06:59;-3.60;99.90
71142;DHT22;58808;59.366;17.970;2023-11-19T03:09:24;-3.60;99.90
71142;DHT22;58808;59.366;17.970;2023-11-19T03:11:50;-3.60;99.90
71142;DHT22;58808;59.366;17.970;2023-11-19T03:14:16;-3.60;99.90
71142;DHT22;58808;59.366;17.970;2023-11-19T03:16:45;-3.60;99.90
71142;DHT22;58808;59.366;17.970;2023-11-19T03:19:14;-3.60;99.90
71142;DHT22;58808;59.366;17.970;2023-11-19T03:21:40;-3.60;99.90
71142;DHT22;58808;59.366;17.970;2023-11-19T03:24:06;-3.60;99.90
71142;DHT22;58808;59.366;17.970;2023-11-19T03:26:32;-3.50;99.90
71142;DHT22;58808;59.366;17.970;2023-11-19T03:28:59;-3.50;99.90
71142;DHT22;58808;59.366;17.970;2023-11-19T03:31:25;-3.50;99.90
71142;DHT22;58808;59.366;17.970;2023-11-19T03:33:51;-3.60;99.90
71142;DHT22;58808;59.366;17.970;2023-11-19T03:36:16;-3.50;99.90
71142;DHT22;58808;59.366;17.970;2023-11-19T03:38:43;-3.50;99.90
71142;DHT22;58808;59.366;17.970;2023-11-19T03:41:12;-3.50;99.90
71142;DHT22;58808;59.366;17.970;2023-11-19T03:43:38;-3.50;99.90
71142;DHT22;58808;59.366;17.970;2023-11-19T03:46:05;-3.50;99.90
71142;DHT22;58808;59.366;17.970;2023-11-19T03:48:31;-3.50;99.90
71142;DHT22;58808;59.366;17.970;2023-11-19T03:50:57;-3.50;99.90
71142;DHT22;58808;59.366;17.970;2023-11-19T03:53:22;-3.50;99.90
71142;DHT22;58808;59.366;17.970;2023-11-19T03:55:49;-3.60;99.90
71142;DHT22;58808;59.366;17.970;2023-11-19T03:58:15;-3.60;99.90
71142;DHT22;58808;59.366;17.970;2023-11-19T04:00:41;-3.60;99.90
71142;DHT22;58808;59.366;17.970;2023-11-19T04:03:06;-3.60;99.90
71142;DHT22;58808;59.366;17.970;2023-11-19T04:05:32;-3.70;99.90
71142;DHT22;58808;59.366;17.970;2023-11-19T04:07:58;-3.70;99.90
71142;DHT22;58808;59.366;17.970;2023-11-19T04:10:23;-3.70;99.90
71142;DHT22;58808;59.366;17.970;2023-11-19T04:12:49;-3.70;99.90
71142;DHT22;58808;59.366;17.970;2023-11-19T04:15:15;-3.70;99.90
71142;DHT22;58808;59.366;17.970;2023-11-19T04:17:41;-3.70;99.90
71142;DHT22;58808;59.366;17.970;2023-11-19T04:20:07;-3.60;99.90
71142;DHT22;58808;59.366;17.970;2023-11-19T04:22:38;-3.60;99.90
71142;DHT22;58808;59.366;17.970;2023-11-19T04:25:04;-3.60;99.90
71142;DHT22;58808;59.366;17.970;2023-11-19T04:27:30;-3.60;99.90
71142;DHT22;58808;59.366;17.970;2023-11-19T04:29:56;-3.60;99.90
71142;DHT22;58808;59.366;17.970;2023-11-19T04:32:22;-3.60;99.90
71142;DHT22;58808;59.366;17.970;2023-11-19T04:34:47;-3.60;99.90
71142;DHT22;58808;59.366;17.970;2023-11-19T04:37:13;-3.60;99.90
71142;DHT22;58808;59.366;17.970;2023-11-19T04:39:39;-3.70;99.90
71142;DHT22;58808;59.366;17.970;2023-11-19T04:42:05;-3.70;99.90
71142;DHT22;58808;59.366;17.970;2023-11-19T04:44:31;-3.80;99.90
71142;DHT22;58808;59.366;17.970;2023-11-19T04:46:57;-3.70;99.90
71142;DHT22;58808;59.366;17.970;2023-11-19T04:49:23;-3.70;99.90
71142;DHT22;58808;59.366;17.970;2023-11-19T04:51:49;-3.70;99.90
71142;DHT22;58808;59.366;17.970;2023-11-19T04:54:16;-3.90;99.90
71142;DHT22;58808;59.366;17.970;2023-11-19T04:56:45;-3.90;99.90
71142;DHT22;58808;59.366;17.970;2023-11-19T04:59:11;-3.80;99.90
71142;DHT22;58808;59.366;17.970;2023-11-19T05:01:37;-3.80;99.90
71142;DHT22;58808;59.366;17.970;2023-11-19T05:04:02;-3.80;99.90
71142;DHT22;58808;59.366;17.970;2023-11-19T05:06:29;-3.80;99.90
71142;DHT22;58808;59.366;17.970;2023-11-19T05:08:56;-3.80;99.90
71142;DHT22;58808;59.366;17.970;2023-11-19T05:11:22;-3.70;99.90
71142;DHT22;58808;59.366;17.970;2023-11-19T05:13:48;-3.60;99.90
71142;DHT22;58808;59.366;17.970;2023-11-19T05:16:13;-3.60;99.90
71142;DHT22;58808;59.366;17.970;2023-11-19T05:18:42;-3.50;99.90
71142;DHT22;58808;59.366;17.970;2023-11-19T05:21:08;-3.50;99.90
71142;DHT22;58808;59.366;17.970;2023-11-19T05:23:34;-3.60;99.90
71142;DHT22;58808;59.366;17.970;2023-11-19T05:26:01;-3.70;99.90
71142;DHT22;58808;59.366;17.970;2023-11-19T05:28:26;-3.70;99.90
71142;DHT22;58808;59.366;17.970;2023-11-19T05:30:52;-3.70;99.90
71142;DHT22;58808;59.366;17.970;2023-11-19T05:33:17;-3.70;99.90
71142;DHT22;58808;59.366;17.970;2023-11-19T05:35:43;-3.70;99.90
71142;DHT22;58808;59.366;17.970;2023-11-19T05:38:09;-3.70;99.90
71142;DHT22;58808;59.366;17.970;2023-11-19T05:40:35;-3.70;99.90
71142;DHT22;58808;59.366;17.970;2023-11-19T05:43:01;-3.70;99.90
71142;DHT22;58808;59.366;17.970;2023-11-19T05:45:27;-3.70;99.90
71142;DHT22;58808;59.366;17.970;2023-11-19T05:47:53;-3.70;99.90
71142;DHT22;58808;59.366;17.970;2023-11-19T05:50:19;-3.70;99.90
71142;DHT22;58808;59.366;17.970;2023-11-19T05:52:46;-3.70;99.90
71142;DHT22;58808;59.366;17.970;2023-11-19T05:55:11;-3.70;99.90
71142;DHT22;58808;59.366;17.970;2023-11-19T05:57:38;-3.70;99.90
71142;DHT22;58808;59.366;17.970;2023-11-19T06:00:06;-3.80;99.90
71142;DHT22;58808;59.366;17.970;2023-11-19T06:02:34;-3.80;99.90
71142;DHT22;58808;59.366;17.970;2023-11-19T06:05:01;-3.90;99.90
71142;DHT22;58808;59.366;17.970;2023-11-19T06:07:27;-3.90;99.90
71142;DHT22;58808;59.366;17.970;2023-11-19T06:09:53;-3.90;99.90
71142;DHT22;58808;59.366;17.970;2023-11-19T06:12:19;-3.90;99.90
71142;DHT22;58808;59.366;17.970;2023-11-19T06:14:45;-4.00;99.90
71142;DHT22;58808;59.366;17.970;2023-11-19T06:17:10;-3.90;99.90
71142;DHT22;58808;59.366;17.970;2023-11-19T06:19:37;-3.90;99.90
71142;DHT22;58808;59.366;17.970;2023-11-19T06:22:03;-3.90;99.90
71142;DHT22;58808;59.366;17.970;2023-11-19T06:24:29;-3.90;99.90
71142;DHT22;58808;59.366;17.970;2023-11-19T06:26:55;-3.90;99.90
71142;DHT22;58808;59.366;17.970;2023-11-19T06:29:21;-3.80;99.90
71142;DHT22;58808;59.366;17.970;2023-11-19T06:31:46;-3.70;99.90
71142;DHT22;58808;59.366;17.970;2023-11-19T06:34:14;-3.70;99.90
71142;DHT22;58808;59.366;17.970;2023-11-19T06:36:40;-3.60;99.90
71142;DHT22;58808;59.366;17.970;2023-11-19T06:39:06;-3.60;99.90
71142;DHT22;58808;59.366;17.970;2023-11-19T06:41:31;-3.50;99.90
71142;DHT22;58808;59.366;17.970;2023-11-19T06:43:57;-3.50;99.90
71142;DHT22;58808;59.366;17.970;2023-11-19T06:46:23;-3.50;99.90
71142;DHT22;58808;59.366;17.970;2023-11-19T06:48:49;-3.50;99.90
71142;DHT22;58808;59.366;17.970;2023-11-19T06:51:14;-3.40;99.90
71142;DHT22;58808;59.366;17.970;2023-11-19T06:53:40;-3.50;99.90
71142;DHT22;58808;59.366;17.970;2023-11-19T06:56:18;-3.50;99.90
71142;DHT22;58808;59.366;17.970;2023-11-19T06:58:43;-3.50;99.90
71142;DHT22;58808;59.366;17.970;2023-11-19T07:01:09;-3.50;99.90
71142;DHT22;58808;59.366;17.970;2023-11-19T07:03:35;-3.50;99.90
71142;DHT22;58808;59.366;17.970;2023-11-19T07:06:00;-3.50;99.90
71142;DHT22;58808;59.366;17.970;2023-11-19T07:08:26;-3.60;99.90
71142;DHT22;58808;59.366;17.970;2023-11-19T07:10:52;-3.60;99.90
71142;DHT22;58808;59.366;17.970;2023-11-19T07:13:18;-3.50;99.90
71142;DHT22;58808;59.366;17.970;2023-11-19T07:15:44;-3.50;99.90
71142;DHT22;58808;59.366;17.970;2023-11-19T07:18:10;-3.50;99.90
71142;DHT22;58808;59.366;17.970;2023-11-19T07:20:37;-3.50;99.90
71142;DHT22;58808;59.366;17.970;2023-11-19T07:23:03;-3.50;99.90
71142;DHT22;58808;59.366;17.970;2023-11-19T07:25:29;-3.50;99.90
71142;DHT22;58808;59.366;17.970;2023-11-19T07:27:55;-3.50;99.90
71142;DHT22;58808;59.366;17.970;2023-11-19T07:30:22;-3.50;99.90
71142;DHT22;58808;59.366;17.970;2023-11-19T07:32:47;-3.50;99.90
71142;DHT22;58808;59.366;17.970;2023-11-19T07:35:14;-3.50;99.90
71142;DHT22;58808;59.366;17.970;2023-11-19T07:37:41;-3.50;99.90
71142;DHT22;58808;59.366;17.970;2023-11-19T07:40:08;-3.50;99.90
71142;DHT22;58808;59.366;17.970;2023-11-19T07:42:33;-3.50;99.90
71142;DHT22;58808;59.366;17.970;2023-11-19T07:44:59;-3.50;99.90
71142;DHT22;58808;59.366;17.970;2023-11-19T07:47:25;-3.50;99.90
71142;DHT22;58808;59.366;17.970;2023-11-19T07:49:51;-3.50;99.90
71142;DHT22;58808;59.366;17.970;2023-11-19T07:52:17;-3.40;99.90
71142;DHT22;58808;59.366;17.970;2023-11-19T07:54:42;-3.40;99.90
71142;DHT22;58808;59.366;17.970;2023-11-19T07:57:08;-3.40;99.90
71142;DHT22;58808;59.366;17.970;2023-11-19T07:59:34;-3.30;99.90
71142;DHT22;58808;59.366;17.970;2023-11-19T08:02:00;-3.30;99.90
71142;DHT22;58808;59.366;17.970;2023-11-19T08:04:25;-3.30;99.90
71142;DHT22;58808;59.366;17.970;2023-11-19T08:06:51;-3.20;99.90
71142;DHT22;58808;59.366;17.970;2023-11-19T08:09:17;-3.20;99.90
71142;DHT22;58808;59.366;17.970;2023-11-19T08:11:43;-3.20;99.90
71142;DHT22;58808;59.366;17.970;2023-11-19T08:14:09;-3.20;99.90
71142;DHT22;58808;59.366;17.970;2023-11-19T08:16:35;-3.10;99.90
71142;DHT22;58808;59.366;17.970;2023-11-19T08:19:01;-3.10;99.90
71142;DHT22;58808;59.366;17.970;2023-11-19T08:21:28;-3.10;99.90
71142;DHT22;58808;59.366;17.970;2023-11-19T08:23:54;-3.10;99.90
71142;DHT22;58808;59.366;17.970;2023-11-19T08:26:20;-3.00;99.90
71142;DHT22;58808;59.366;17.970;2023-11-19T08:28:45;-3.00;99.90
71142;DHT22;58808;59.366;17.970;2023-11-19T08:31:11;-3.00;99.90
71142;DHT22;58808;59.366;17.970;2023-11-19T08:33:37;-2.90;99.90
71142;DHT22;58808;59.366;17.970;2023-11-19T08:36:03;-2.90;99.90
71142;DHT22;58808;59.366;17.970;2023-11-19T08:38:29;-2.90;99.90
71142;DHT22;58808;59.366;17.970;2023-11-19T08:40:55;-2.80;99.90
71142;DHT22;58808;59.366;17.970;2023-11-19T08:43:26;-2.80;99.90
71142;DHT22;58808;59.366;17.970;2023-11-19T08:45:51;-2.70;99.90
71142;DHT22;58808;59.366;17.970;2023-11-19T08:48:17;-2.70;99.90
71142;DHT22;58808;59.366;17.970;2023-11-19T08:50:43;-2.60;99.90
71142;DHT22;58808;59.366;17.970;2023-11-19T08:53:08;-2.60;99.90
71142;DHT22;58808;59.366;17.970;2023-11-19T08:55:34;-2.60;99.90
71142;DHT22;58808;59.366;17.970;2023-11-19T08:58:00;-2.60;99.90
71142;DHT22;58808;59.366;17.970;2023-11-19T09:00:26;-2.60;99.90
71142;DHT22;58808;59.366;17.970;2023-11-19T09:02:52;-2.60;99.90
71142;DHT22;58808;59.366;17.970;2023-11-19T09:05:17;-2.60;99.90
71142;DHT22;58808;59.366;17.970;2023-11-19T09:07:43;-2.60;99.90
71142;DHT22;58808;59.366;17.970;2023-11-19T09:10:09;-2.60;99.90
71142;DHT22;58808;59.366;17.970;2023-11-19T09:12:37;-2.60;99.90
71142;DHT22;58808;59.366;17.970;2023-11-19T09:15:03;-2.70;99.90
71142;DHT22;58808;59.366;17.970;2023-11-19T09:17:28;-2.60;99.90
71142;DHT22;58808;59.366;17.970;2023-11-19T09:19:54;-2.60;99.90
71142;DHT22;58808;59.366;17.970;2023-11-19T09:22:20;-2.50;99.90
71142;DHT22;58808;59.366;17.970;2023-11-19T09:24:45;-2.50;99.90
71142;DHT22;58808;59.366;17.970;2023-11-19T09:27:11;-2.40;99.90
71142;DHT22;58808;59.366;17.970;2023-11-19T09:29:37;-2.30;99.90
71142;DHT22;58808;59.366;17.970;2023-11-19T09:32:02;-2.30;99.90
71142;DHT22;58808;59.366;17.970;2023-11-19T09:34:28;-2.20;99.90
71142;DHT22;58808;59.366;17.970;2023-11-19T09:36:54;-2.20;99.90
71142;DHT22;58808;59.366;17.970;2023-11-19T09:39:19;-2.20;99.90
71142;DHT22;58808;59.366;17.970;2023-11-19T09:41:46;-2.10;99.90
71142;DHT22;58808;59.366;17.970;2023-11-19T09:44:12;-2.00;99.90
71142;DHT22;58808;59.366;17.970;2023-11-19T09:46:41;-2.00;99.90
71142;DHT22;58808;59.366;17.970;2023-11-19T09:49:08;-1.90;99.90
71142;DHT22;58808;59.366;17.970;2023-11-19T09:51:35;-1.90;99.90
71142;DHT22;58808;59.366;17.970;2023-11-19T09:54:01;-1.80;99.90
71142;DHT22;58808;59.366;17.970;2023-11-19T09:56:29;-1.80;99.90
71142;DHT22;58808;59.366;17.970;2023-11-19T09:58:55;-1.80;99.90
71142;DHT22;58808;59.366;17.970;2023-11-19T10:01:21;-1.80;99.90
71142;DHT22;58808;59.366;17.970;2023-11-19T10:03:47;-1.70;99.90
71142;DHT22;58808;59.366;17.970;2023-11-19T10:06:14;-1.70;99.90
71142;DHT22;58808;59.366;17.970;2023-11-19T10:08:41;-1.70;99.90
71142;DHT22;58808;59.366;17.970;2023-11-19T10:11:08;-1.60;99.90
71142;DHT22;58808;59.366;17.970;2023-11-19T10:13:37;-1.60;99.90
71142;DHT22;58808;59.366;17.970;2023-11-19T10:16:09;-1.60;99.90
71142;DHT22;58808;59.366;17.970;2023-11-19T10:18:37;-1.50;99.90
71142;DHT22;58808;59.366;17.970;2023-11-19T10:21:04;-1.40;99.90
71142;DHT22;58808;59.366;17.970;2023-11-19T10:23:31;-1.40;99.90
71142;DHT22;58808;59.366;17.970;2023-11-19T10:26:03;-1.40;99.90
71142;DHT22;58808;59.366;17.970;2023-11-19T10:28:41;-1.40;99.90
71142;DHT22;58808;59.366;17.970;2023-11-19T10:31:14;-1.40;99.90
71142;DHT22;58808;59.366;17.970;2023-11-19T10:33:40;-1.40;99.90
71142;DHT22;58808;59.366;17.970;2023-11-19T10:36:06;-1.40;99.90
71142;DHT22;58808;59.366;17.970;2023-11-19T10:38:32;-1.30;99.90
71142;DHT22;58808;59.366;17.970;2023-11-19T10:40:59;-1.30;99.90
71142;DHT22;58808;59.366;17.970;2023-11-19T10:43:25;-1.30;99.90
71142;DHT22;58808;59.366;17.970;2023-11-19T10:45:51;-1.30;99.90
71142;DHT22;58808;59.366;17.970;2023-11-19T10:48:18;-1.30;99.90
71142;DHT22;58808;59.366;17.970;2023-11-19T10:50:45;-1.20;99.90
71142;DHT22;58808;59.366;17.970;2023-11-19T10:53:12;-1.20;99.90
71142;DHT22;58808;59.366;17.970;2023-11-19T10:55:47;-1.10;99.90
71142;DHT22;58808;59.366;17.970;2023-11-19T10:58:15;-1.00;99.90
71142;DHT22;58808;59.366;17.970;2023-11-19T11:00:52;-1.00;99.90
71142;DHT22;58808;59.366;17.970;2023-11-19T11:03:25;-1.00;99.90
71142;DHT22;58808;59.366;17.970;2023-11-19T11:05:52;-1.00;99.90
71142;DHT22;58808;59.366;17.970;2023-11-19T11:08:19;-1.10;99.90
71142;DHT22;58808;59.366;17.970;2023-11-19T11:10:54;-1.00;99.90
71142;DHT22;58808;59.366;17.970;2023-11-19T11:13:22;-0.90;99.90
71142;DHT22;58808;59.366;17.970;2023-11-19T11:15:48;-0.80;99.90
71142;DHT22;58808;59.366;17.970;2023-11-19T11:18:14;-0.70;99.90
71142;DHT22;58808;59.366;17.970;2023-11-19T11:20:43;-0.60;99.90
71142;DHT22;58808;59.366;17.970;2023-11-19T11:28:39;-0.40;99.90
71142;DHT22;58808;59.366;17.970;2023-11-19T11:31:09;-0.30;99.90
71142;DHT22;58808;59.366;17.970;2023-11-19T11:36:58;-0.60;99.90
71142;DHT22;58808;59.366;17.970;2023-11-19T11:39:29;-0.70;99.90
71142;DHT22;58808;59.366;17.970;2023-11-19T11:45:10;-0.80;99.90
71142;DHT22;58808;59.366;17.970;2023-11-19T11:50:26;-1.00;99.90
71142;DHT22;58808;59.366;17.970;2023-11-19T11:55:37;-1.00;99.90
71142;DHT22;58808;59.366;17.970;2023-11-19T11:58:03;-1.10;99.90
71142;DHT22;58808;59.366;17.970;2023-11-19T12:00:31;-1.10;99.90
71142;DHT22;58808;59.366;17.970;2023-11-19T12:03:02;-1.10;99.90
71142;DHT22;58808;59.366;17.970;2023-11-19T12:05:28;-1.10;99.90
71142;DHT22;58808;59.366;17.970;2023-11-19T12:08:01;-1.10;99.90
71142;DHT22;58808;59.366;17.970;2023-11-19T12:10:31;-1.20;99.90
71142;DHT22;58808;59.366;17.970;2023-11-19T12:13:01;-1.20;99.90
71142;DHT22;58808;59.366;17.970;2023-11-19T12:15:27;-1.30;99.90
71142;DHT22;58808;59.366;17.970;2023-11-19T12:17:55;-1.30;99.90
71142;DHT22;58808;59.366;17.970;2023-11-19T12:20:24;-1.30;99.90
71142;DHT22;58808;59.366;17.970;2023-11-19T12:22:50;-1.30;99.90
71142;DHT22;58808;59.366;17.970;2023-11-19T12:25:17;-1.30;99.90
71142;DHT22;58808;59.366;17.970;2023-11-19T12:27:48;-1.30;99.90
71142;DHT22;58808;59.366;17.970;2023-11-19T12:30:26;-1.30;99.90
71142;DHT22;58808;59.366;17.970;2023-11-19T12:32:52;-1.30;99.90
71142;DHT22;58808;59.366;17.970;2023-11-19T12:35:22;-1.40;99.90
71142;DHT22;58808;59.366;17.970;2023-11-19T12:37:49;-1.30;99.90
71142;DHT22;58808;59.366;17.970;2023-11-19T12:40:17;-1.40;99.90
71142;DHT22;58808;59.366;17.970;2023-11-19T12:42:50;-1.40;99.90
71142;DHT22;58808;59.366;17.970;2023-11-19T12:45:16;-1.50;99.90
71142;DHT22;58808;59.366;17.970;2023-11-19T12:47:43;-1.50;99.90
71142;DHT22;58808;59.366;17.970;2023-11-19T12:50:10;-1.50;99.90
71142;DHT22;58808;59.366;17.970;2023-11-19T12:52:36;-1.50;99.90
71142;DHT22;58808;59.366;17.970;2023-11-19T12:57:51;-1.60;99.90
71142;DHT22;58808;59.366;17.970;2023-11-19T13:00:21;-1.60;99.90
71142;DHT22;58808;59.366;17.970;2023-11-19T13:02:48;-1.60;99.90
71142;DHT22;58808;59.366;17.970;2023-11-19T13:05:31;-1.60;99.90
71142;DHT22;58808;59.366;17.970;2023-11-19T13:08:06;-1.70;99.90
71142;DHT22;58808;59.366;17.970;2023-11-19T13:10:52;-1.60;99.90
71142;DHT22;58808;59.366;17.970;2023-11-19T13:13:19;-1.70;99.90
71142;DHT22;58808;59.366;17.970;2023-11-19T13:15:45;-1.70;99.90
71142;DHT22;58808;59.366;17.970;2023-11-19T13:18:11;-1.70;99.90
71142;DHT22;58808;59.366;17.970;2023-11-19T13:20:37;-1.70;99.90
71142;DHT22;58808;59.366;17.970;2023-11-19T13:23:05;-1.60;99.90
71142;DHT22;58808;59.366;17.970;2023-11-19T13:25:31;-1.60;99.90
71142;DHT22;58808;59.366;17.970;2023-11-19T13:27:58;-1.60;99.90
71142;DHT22;58808;59.366;17.970;2023-11-19T13:30:25;-1.60;99.90
71142;DHT22;58808;59.366;17.970;2023-11-19T13:32:51;-1.60;99.90
71142;DHT22;58808;59.366;17.970;2023-11-19T13:35:18;-1.60;99.90
71142;DHT22;58808;59.366;17.970;2023-11-19T13:37:47;-1.60;99.90
71142;DHT22;58808;59.366;17.970;2023-11-19T13:40:13;-1.50;99.90
71142;DHT22;58808;59.366;17.970;2023-11-19T13:42:41;-1.50;99.90
71142;DHT22;58808;59.366;17.970;2023-11-19T13:45:11;-1.50;99.90
71142;DHT22;58808;59.366;17.970;2023-11-19T13:47:41;-1.50;99.90
71142;DHT22;58808;59.366;17.970;2023-11-19T13:50:13;-1.50;99.90
71142;DHT22;58808;59.366;17.970;2023-11-19T13:52:40;-1.50;99.90
71142;DHT22;58808;59.366;17.970;2023-11-19T13:55:07;-1.50;99.90
71142;DHT22;58808;59.366;17.970;2023-11-19T13:57:37;-1.50;99.90
71142;DHT22;58808;59.366;17.970;2023-11-19T14:00:04;-1.50;99.90
71142;DHT22;58808;59.366;17.970;2023-11-19T14:02:34;-1.50;99.90
71142;DHT22;58808;59.366;17.970;2023-11-19T14:05:00;-1.50;99.90
71142;DHT22;58808;59.366;17.970;2023-11-19T14:07:26;-1.50;99.90
71142;DHT22;58808;59.366;17.970;2023-11-19T14:09:53;-1.50;99.90
71142;DHT22;58808;59.366;17.970;2023-11-19T14:12:18;-1.50;99.90
71142;DHT22;58808;59.366;17.970;2023-11-19T14:14:44;-1.50;99.90
71142;DHT22;58808;59.366;17.970;2023-11-19T14:17:10;-1.50;99.90
71142;DHT22;58808;59.366;17.970;2023-11-19T14:19:36;-1.50;99.90
71142;DHT22;58808;59.366;17.970;2023-11-19T14:22:03;-1.50;99.90
71142;DHT22;58808;59.366;17.970;2023-11-19T14:24:29;-1.50;99.90
71142;DHT22;58808;59.366;17.970;2023-11-19T14:26:55;-1.50;99.90
71142;DHT22;58808;59.366;17.970;2023-11-19T14:29:24;-1.50;99.90
71142;DHT22;58808;59.366;17.970;2023-11-19T14:31:51;-1.50;99.90
71142;DHT22;58808;59.366;17.970;2023-11-19T14:34:18;-1.50;99.90
71142;DHT22;58808;59.366;17.970;2023-11-19T14:36:44;-1.50;99.90
71142;DHT22;58808;59.366;17.970;2023-11-19T14:39:10;-1.60;99.90
71142;DHT22;58808;59.366;17.970;2023-11-19T14:41:36;-1.60;99.90
71142;DHT22;58808;59.366;17.970;2023-11-19T14:44:01;-1.60;99.90
71142;DHT22;58808;59.366;17.970;2023-11-19T14:46:29;-1.60;99.90
71142;DHT22;58808;59.366;17.970;2023-11-19T14:48:54;-1.60;99.90
71142;DHT22;58808;59.366;17.970;2023-11-19T14:51:20;-1.60;99.90
71142;DHT22;58808;59.366;17.970;2023-11-19T14:53:46;-1.60;99.90
71142;DHT22;58808;59.366;17.970;2023-11-19T14:56:12;-1.60;99.90
71142;DHT22;58808;59.366;17.970;2023-11-19T14:58:38;-1.60;99.90
71142;DHT22;58808;59.366;17.970;2023-11-19T15:01:05;-1.60;99.90
71142;DHT22;58808;59.366;17.970;2023-11-19T15:03:31;-1.60;99.90
71142;DHT22;58808;59.366;17.970;2023-11-19T15:05:56;-1.50;99.90
71142;DHT22;58808;59.366;17.970;2023-11-19T15:08:22;-1.60;99.90
71142;DHT22;58808;59.366;17.970;2023-11-19T15:10:48;-1.60;99.90
71142;DHT22;58808;59.366;17.970;2023-11-19T15:13:14;-1.60;99.90
71142;DHT22;58808;59.366;17.970;2023-11-19T15:15:39;-1.60;99.90
71142;DHT22;58808;59.366;17.970;2023-11-19T15:18:05;-1.50;99.90
71142;DHT22;58808;59.366;17.970;2023-11-19T15:20:31;-1.60;99.90
71142;DHT22;58808;59.366;17.970;2023-11-19T15:22:59;-1.60;99.90
71142;DHT22;58808;59.366;17.970;2023-11-19T15:25:25;-1.60;99.90
71142;DHT22;58808;59.366;17.970;2023-11-19T15:27:51;-1.60;99.90
71142;DHT22;58808;59.366;17.970;2023-11-19T15:30:16;-1.50;99.90
71142;DHT22;58808;59.366;17.970;2023-11-19T15:32:42;-1.50;99.90